createdAt,value
2022-08-16T00:00:40.281Z,14.93
2022-08-16T00:03:13.591Z,14.45
2022-08-16T00:05:48.466Z,15.97
2022-08-16T00:08:35.668Z,15.63
2022-08-16T00:11:08.091Z,17.38
2022-08-16T00:13:42.568Z,19.55
2022-08-16T00:17:05.987Z,21.45
2022-08-16T00:18:56.670Z,25.37
2022-08-16T00:21:25.093Z,28.60
2022-08-16T00:23:51.731Z,34.43
2022-08-16T00:26:35.310Z,38.97
2022-08-16T00:29:05.150Z,47.33
2022-08-16T00:31:58.713Z,57.13
2022-08-16T00:34:22.901Z,64.22
2022-08-16T00:37:10.214Z,71.22
2022-08-16T00:39:36.911Z,73.88
2022-08-16T00:42:05.919Z,80.10
2022-08-16T00:44:39.399Z,92.30
2022-08-16T00:47:16.208Z,106.95
2022-08-16T00:49:44.587Z,119.18
2022-08-16T00:52:29.472Z,130.60
2022-08-16T00:54:59.380Z,137.80
2022-08-16T00:57:27.638Z,143.90
2022-08-16T01:00:19.792Z,156.07
2022-08-16T01:02:48.813Z,163.90
2022-08-16T01:05:16.196Z,172.50
2022-08-16T01:07:52.049Z,179.93
2022-08-16T01:10:32.806Z,191.60
2022-08-16T01:13:12.100Z,189.98
2022-08-16T01:15:47.979Z,191.33
2022-08-16T01:18:39.860Z,198.47
2022-08-16T01:21:41.880Z,199.38
2022-08-16T01:24:53.494Z,210.13
2022-08-16T01:27:31.612Z,213.15
2022-08-16T01:30:04.845Z,221.00
2022-08-16T01:33:01.624Z,225.90
2022-08-16T01:35:52.649Z,229.15
2022-08-16T01:38:25.916Z,238.15
2022-08-16T01:41:19.323Z,238.68
2022-08-16T01:43:54.318Z,237.95
2022-08-16T01:46:39.682Z,236.10
2022-08-16T01:49:43.196Z,238.55
2022-08-16T01:52:29.967Z,236.43
2022-08-16T01:55:18.595Z,238.32
2022-08-16T01:57:53.572Z,245.23
2022-08-16T02:00:28.854Z,250.13
2022-08-16T02:02:58.052Z,251.35
2022-08-16T02:05:24.802Z,256.90
2022-08-16T02:07:52.001Z,258.40
2022-08-16T02:10:20.468Z,259.40
2022-08-16T02:12:56.082Z,262.60
2022-08-16T02:15:29.088Z,264.73
2022-08-16T02:18:01.187Z,263.73
2022-08-16T02:20:33.071Z,265.73
2022-08-16T02:23:05.899Z,271.77
2022-08-16T02:25:51.046Z,270.77
2022-08-16T02:28:23.722Z,273.20
2022-08-16T02:30:52.394Z,271.00
2022-08-16T02:33:24.622Z,272.57
2022-08-16T02:36:14.293Z,273.05
2022-08-16T02:38:56.774Z,272.73
2022-08-16T02:41:24.334Z,270.87
2022-08-16T02:43:53.326Z,276.53
2022-08-16T02:46:20.831Z,274.50
2022-08-16T02:49:01.974Z,279.60
2022-08-16T02:51:29.745Z,280.27
2022-08-16T02:53:59.406Z,275.40
2022-08-16T02:56:32.402Z,274.93
2022-08-16T02:58:59.869Z,283.60
2022-08-16T03:01:36.674Z,279.95
2022-08-16T03:04:29.278Z,281.65
2022-08-16T03:06:57.354Z,288.53
2022-08-16T03:09:38.467Z,276.33
2022-08-16T03:12:06.649Z,276.45
2022-08-16T03:14:34.793Z,278.70
2022-08-16T03:17:06.440Z,272.65
2022-08-16T03:19:48.217Z,284.35
2022-08-16T03:22:28.012Z,275.58
2022-08-16T03:25:01.032Z,268.55
2022-08-16T03:27:32.311Z,279.02
2022-08-16T03:30:25.775Z,276.00
2022-08-16T03:32:59.497Z,284.80
2022-08-16T03:35:36.581Z,283.42
2022-08-16T03:38:33.764Z,273.85
2022-08-16T03:41:24.364Z,279.80
2022-08-16T03:43:58.681Z,281.02
2022-08-16T03:46:48.448Z,290.35
2022-08-16T03:49:36.467Z,289.83
2022-08-16T03:52:05.759Z,287.35
2022-08-16T03:54:35.913Z,277.65
2022-08-16T03:57:05.150Z,293.95
2022-08-16T03:59:33.141Z,290.92
2022-08-16T04:02:12.621Z,290.40
2022-08-16T04:04:50.104Z,288.67
2022-08-16T04:07:17.125Z,283.70
2022-08-16T04:09:47.052Z,289.33
2022-08-16T04:12:54.564Z,291.13
2022-08-16T04:15:02.810Z,289.08
2022-08-16T04:17:35.161Z,277.33
2022-08-16T04:20:23.904Z,266.13
2022-08-16T04:22:55.835Z,253.45
2022-08-16T04:25:23.568Z,259.63
2022-08-16T04:27:54.168Z,274.23
2022-08-16T04:30:32.215Z,281.63
2022-08-16T04:33:04.360Z,283.83
2022-08-16T04:35:34.738Z,285.63
2022-08-16T04:38:10.630Z,288.48
2022-08-16T04:40:50.041Z,280.67
2022-08-16T04:43:18.698Z,285.33
2022-08-16T04:45:47.174Z,279.00
2022-08-16T04:48:28.147Z,288.38
2022-08-16T04:51:00.690Z,283.63
2022-08-16T04:53:41.526Z,278.70
2022-08-16T04:56:11.571Z,288.30
2022-08-16T04:58:45.940Z,285.80
2022-08-16T05:01:15.546Z,298.23
2022-08-16T05:04:00.908Z,285.90
2022-08-16T05:06:46.733Z,291.27
2022-08-16T05:09:22.946Z,286.52
2022-08-16T05:11:53.238Z,291.60
2022-08-16T05:14:45.866Z,288.27
2022-08-16T05:17:14.266Z,284.23
2022-08-16T05:19:46.594Z,282.07
2022-08-16T05:22:28.463Z,278.30
2022-08-16T05:24:57.656Z,275.85
2022-08-16T05:27:24.524Z,273.92
2022-08-16T05:29:57.437Z,269.07
2022-08-16T05:32:32.581Z,271.15
2022-08-16T05:35:11.114Z,268.00
2022-08-16T05:37:42.295Z,276.38
2022-08-16T05:40:16.248Z,268.83
2022-08-16T05:42:47.552Z,281.98
2022-08-16T05:45:21.404Z,278.65
2022-08-16T05:47:59.496Z,275.90
2022-08-16T05:50:35.335Z,278.58
2022-08-16T05:53:04.044Z,273.38
2022-08-16T05:55:36.793Z,267.35
2022-08-16T05:58:08.321Z,279.57
2022-08-16T06:00:37.085Z,266.48
2022-08-16T06:03:05.353Z,257.25
2022-08-16T06:05:57.038Z,261.27
2022-08-16T06:08:32.099Z,255.30
2022-08-16T06:11:09.572Z,266.70
2022-08-16T06:13:37.861Z,268.00
2022-08-16T06:16:18.659Z,262.30
2022-08-16T06:18:50.914Z,273.90
2022-08-16T06:21:22.562Z,269.85
2022-08-16T06:23:55.759Z,268.98
2022-08-16T06:26:24.129Z,266.88
2022-08-16T06:29:07.665Z,270.05
2022-08-16T06:31:46.773Z,261.15
2022-08-16T06:34:54.865Z,247.10
2022-08-16T06:37:04.756Z,252.10
2022-08-16T06:39:49.855Z,237.38
2022-08-16T06:42:39.561Z,238.88
2022-08-16T06:45:31.141Z,224.40
2022-08-16T06:48:05.563Z,207.97
2022-08-16T06:50:33.748Z,224.23
2022-08-16T06:53:08.479Z,211.15
2022-08-16T06:55:43.257Z,167.48
2022-08-16T06:58:21.949Z,170.17
2022-08-16T07:00:58.089Z,177.30
2022-08-16T07:03:32.172Z,167.68
2022-08-16T07:06:03.756Z,177.60
2022-08-16T07:08:37.939Z,170.48
2022-08-16T07:11:09.256Z,156.65
2022-08-16T07:14:03.967Z,126.45
2022-08-16T07:16:28.109Z,131.02
2022-08-16T07:18:59.113Z,104.03
2022-08-16T07:21:45.839Z,113.50
2022-08-16T07:24:26.820Z,118.88
2022-08-16T07:27:08.557Z,133.55
2022-08-16T07:29:40.284Z,149.35
2022-08-16T07:32:11.327Z,169.07
2022-08-16T07:34:48.612Z,151.32
2022-08-16T07:37:23.082Z,140.07
2022-08-16T07:40:11.015Z,152.48
2022-08-16T07:42:40.611Z,145.57
2022-08-16T07:45:10.188Z,123.07
2022-08-16T07:47:44.633Z,125.23
2022-08-16T07:50:55.578Z,108.03
2022-08-16T07:53:04.459Z,57.40
2022-08-16T07:55:45.969Z,68.28
2022-08-16T07:58:34.378Z,69.00
2022-08-16T08:01:10.699Z,61.75
2022-08-16T08:03:48.243Z,57.67
2022-08-16T08:06:21.369Z,40.60
2022-08-16T08:08:57.186Z,34.88
2022-08-16T08:11:31.076Z,35.35
2022-08-16T08:14:06.844Z,24.25
2022-08-16T08:16:45.460Z,22.17
2022-08-16T08:19:22.792Z,25.33
2022-08-16T08:21:58.768Z,22.38
2022-08-16T08:24:46.827Z,30.60
2022-08-16T08:27:22.774Z,36.33
2022-08-16T08:30:52.071Z,43.40
2022-08-16T08:32:57.553Z,37.35
2022-08-16T08:35:28.672Z,34.75
2022-08-16T08:37:57.180Z,21.07
2022-08-16T08:40:28.492Z,16.95
2022-08-16T08:43:11.379Z,8.67
2022-08-16T08:45:46.900Z,7.93
2022-08-16T08:48:33.620Z,7.13
2022-08-16T08:51:12.028Z,6.57
2022-08-16T08:53:57.802Z,5.78
2022-08-16T08:56:34.925Z,5.70
2022-08-16T08:59:23.619Z,3.80
2022-08-16T09:01:58.115Z,3.90
2022-08-16T09:04:43.462Z,4.20
2022-08-16T09:07:15.831Z,4.50
2022-08-16T09:09:43.049Z,4.30
2022-08-16T09:12:35.429Z,4.18
2022-08-16T09:15:08.257Z,3.92
2022-08-16T09:17:51.502Z,4.15
2022-08-16T09:20:23.519Z,4.38
2022-08-16T09:22:51.157Z,3.70
2022-08-16T09:25:26.485Z,4.30
2022-08-16T09:28:10.167Z,4.10
2022-08-16T09:30:45.087Z,4.63
2022-08-16T09:33:19.962Z,4.55
2022-08-16T09:35:53.013Z,3.92
2022-08-16T09:38:31.791Z,4.72
2022-08-16T09:41:01.084Z,3.78
2022-08-16T09:43:58.674Z,4.30
2022-08-16T09:46:45.612Z,4.53
2022-08-16T09:49:03.816Z,4.63
2022-08-16T09:51:36.748Z,4.85
2022-08-16T09:54:06.020Z,5.38
2022-08-16T09:56:35.942Z,4.85
2022-08-16T09:59:08.207Z,4.60
2022-08-16T10:01:37.084Z,4.47
2022-08-16T10:04:28.939Z,4.28
2022-08-16T10:09:54.103Z,4.67
2022-08-16T10:12:35.464Z,4.70
2022-08-16T10:15:16.001Z,5.10
2022-08-16T10:18:00.956Z,5.80
2022-08-16T10:20:38.133Z,5.80
2022-08-16T10:23:08.054Z,6.40
2022-08-16T10:27:19.332Z,5.63
2022-08-16T10:28:32.469Z,5.47
2022-08-16T10:31:08.173Z,5.72
2022-08-16T10:33:40.364Z,5.72
2022-08-16T10:36:08.894Z,5.70
2022-08-16T10:38:38.960Z,5.88
2022-08-16T10:41:10.348Z,6.70
2022-08-16T10:43:39.275Z,6.22
2022-08-16T10:46:39.843Z,7.70
2022-08-16T10:48:58.688Z,6.05
2022-08-16T10:51:34.653Z,6.47
2022-08-16T10:54:28.691Z,8.70
2022-08-16T10:56:59.073Z,8.35
2022-08-16T10:59:39.039Z,8.23
2022-08-16T11:03:04.737Z,7.30
2022-08-16T11:05:05.984Z,9.40
2022-08-16T11:07:52.382Z,9.30
2022-08-16T11:19:12.380Z,14.57
2022-08-16T11:24:41.392Z,16.50
2022-08-16T11:27:35.299Z,18.13
2022-08-16T11:30:09.207Z,21.73
2022-08-16T11:32:44.378Z,11.70
2022-08-16T11:35:16.032Z,17.57
2022-08-16T11:40:44.457Z,11.90
2022-08-16T11:43:13.152Z,13.82
2022-08-16T11:45:44.088Z,13.25
2022-08-16T11:48:22.972Z,13.35
2022-08-16T11:50:49.688Z,10.88
2022-08-16T11:53:22.047Z,10.50
2022-08-16T11:55:54.458Z,10.07
2022-08-16T11:58:24.542Z,12.00
2022-08-16T12:00:53.128Z,9.85
2022-08-16T12:03:36.723Z,10.70
2022-08-16T12:06:25.007Z,9.43
2022-08-16T12:08:57.559Z,8.73
2022-08-16T12:11:29.007Z,9.27
2022-08-16T12:14:05.744Z,8.10
2022-08-16T12:16:37.383Z,9.50
2022-08-16T12:19:10.394Z,8.13
2022-08-16T12:21:58.475Z,8.60
2022-08-16T12:24:27.103Z,11.32
2022-08-16T12:26:54.215Z,8.00
2022-08-16T12:29:21.913Z,8.25
2022-08-16T12:32:00.652Z,8.20
2022-08-16T12:34:39.640Z,8.70
2022-08-16T12:37:18.343Z,8.40
2022-08-16T12:39:51.364Z,7.40
2022-08-16T12:42:20.610Z,7.65
2022-08-16T12:44:49.571Z,7.90
2022-08-16T12:47:38.641Z,7.47
2022-08-16T12:50:10.461Z,7.32
2022-08-16T12:52:45.141Z,7.55
2022-08-16T12:55:20.820Z,7.63
2022-08-16T12:57:57.867Z,7.15
2022-08-16T13:00:32.999Z,7.25
2022-08-16T13:03:04.731Z,6.60
2022-08-16T13:05:53.401Z,6.95
2022-08-16T13:08:27.476Z,6.43
2022-08-16T13:10:58.653Z,6.78
2022-08-16T13:13:25.890Z,6.50
2022-08-16T13:16:00.892Z,5.95
2022-08-16T13:18:34.682Z,6.43
2022-08-16T13:21:05.034Z,5.45
2022-08-16T13:23:31.756Z,5.60
2022-08-16T13:26:01.890Z,5.70
2022-08-16T13:28:28.755Z,5.90
2022-08-16T13:30:57.917Z,5.90
2022-08-16T13:33:30.427Z,5.97
2022-08-16T13:36:01.201Z,5.93
2022-08-16T13:38:37.076Z,5.55
2022-08-16T13:41:08.514Z,7.03
2022-08-16T13:43:38.045Z,6.20
2022-08-16T13:46:05.611Z,6.03
2022-08-16T13:48:37.135Z,6.35
2022-08-16T13:51:17.412Z,6.60
2022-08-16T13:53:59.717Z,7.03
2022-08-16T13:56:36.952Z,6.97
2022-08-16T13:59:13.981Z,6.67
2022-08-16T14:01:47.513Z,7.15
2022-08-16T14:04:26.408Z,8.00
2022-08-16T14:06:56.421Z,7.95
2022-08-16T14:09:28.324Z,6.80
2022-08-16T14:11:57.440Z,6.60
2022-08-16T14:14:28.915Z,6.20
2022-08-16T14:17:01.628Z,6.15
2022-08-16T14:19:31.064Z,6.40
2022-08-16T14:22:14.626Z,6.53
2022-08-16T14:24:47.480Z,6.45
2022-08-16T14:27:17.572Z,6.97
2022-08-16T14:29:45.503Z,7.25
2022-08-16T14:32:32.414Z,6.93
2022-08-16T14:35:13.927Z,7.22
2022-08-16T14:37:43.162Z,7.30
2022-08-16T14:40:13.685Z,7.40
2022-08-16T14:42:41.183Z,7.00
2022-08-16T14:45:13.591Z,7.47
2022-08-16T14:47:41.016Z,7.15
2022-08-16T14:50:12.966Z,7.47
2022-08-16T14:52:55.219Z,7.47
2022-08-16T14:55:26.086Z,8.00
2022-08-16T14:57:54.557Z,7.57
2022-08-16T15:00:33.155Z,7.72
2022-08-16T15:03:06.847Z,7.82
2022-08-16T15:05:38.299Z,7.50
2022-08-16T15:08:05.965Z,7.50
2022-08-16T15:10:44.916Z,7.60
2022-08-16T15:13:13.857Z,7.70
2022-08-16T15:15:43.430Z,7.53
2022-08-16T15:18:12.132Z,8.00
2022-08-16T15:20:41.416Z,7.80
2022-08-16T15:23:10.013Z,8.18
2022-08-16T15:25:42.649Z,7.88
2022-08-16T15:28:23.951Z,7.95
2022-08-16T15:31:04.374Z,8.30
2022-08-16T15:33:42.165Z,8.23
2022-08-16T15:36:17.496Z,8.80
2022-08-16T15:39:03.845Z,8.70
2022-08-16T15:41:42.657Z,9.13
2022-08-16T15:44:22.567Z,8.70
2022-08-16T15:46:55.777Z,8.65
2022-08-16T15:49:39.062Z,8.73
2022-08-16T15:52:25.002Z,8.70
2022-08-16T15:54:58.102Z,8.57
2022-08-16T15:57:27.788Z,8.45
2022-08-16T16:00:04.766Z,8.50
2022-08-16T16:02:42.306Z,8.10
2022-08-16T16:05:10.482Z,8.20
2022-08-16T16:07:55.652Z,8.55
2022-08-16T16:10:29.445Z,8.55
2022-08-16T16:12:58.105Z,8.10
2022-08-16T16:15:29.833Z,9.18
2022-08-16T16:17:57.606Z,8.80
2022-08-16T16:20:27.861Z,8.53
2022-08-16T16:23:04.074Z,8.18
2022-08-16T16:25:39.950Z,9.40
2022-08-16T16:28:46.354Z,8.63
2022-08-16T16:31:07.585Z,9.23
2022-08-16T16:33:43.228Z,9.20
2022-08-16T16:36:19.306Z,8.63
2022-08-16T16:38:47.587Z,8.80
2022-08-16T16:41:20.496Z,9.20
2022-08-16T16:43:50.322Z,8.00
2022-08-16T16:46:40.411Z,7.80
2022-08-16T16:49:13.938Z,9.40
2022-08-16T16:51:49.699Z,9.13
2022-08-16T16:54:27.522Z,8.85
2022-08-16T16:56:55.468Z,9.17
2022-08-16T16:59:25.505Z,8.15
2022-08-16T17:02:38.835Z,8.63
2022-08-16T17:04:47.649Z,8.20
2022-08-16T17:07:14.891Z,7.30
2022-08-16T17:09:41.718Z,7.43
2022-08-16T17:12:14.581Z,7.30
2022-08-16T17:14:55.350Z,7.20
2022-08-16T17:17:22.878Z,7.07
2022-08-16T17:19:51.136Z,7.40
2022-08-16T17:22:20.509Z,7.95
2022-08-16T17:24:50.714Z,7.07
2022-08-16T17:27:34.173Z,8.07
2022-08-16T17:30:18.268Z,8.35
2022-08-16T17:32:54.669Z,9.18
2022-08-16T17:35:33.987Z,8.93
2022-08-16T17:38:07.345Z,8.43
2022-08-16T17:40:47.458Z,9.05
2022-08-16T17:43:29.300Z,9.50
2022-08-16T17:46:03.740Z,9.75
2022-08-16T17:48:31.204Z,10.32
2022-08-16T17:51:01.978Z,10.82
2022-08-16T17:53:30.188Z,11.70
2022-08-16T17:55:56.933Z,10.73
2022-08-16T17:58:27.252Z,10.60
2022-08-16T18:01:01.067Z,10.40
2022-08-16T18:04:02.186Z,10.20
2022-08-16T18:06:23.740Z,10.63
2022-08-16T18:08:55.914Z,10.03
2022-08-16T18:11:27.751Z,9.23
2022-08-16T18:13:55.061Z,9.07
2022-08-16T18:16:21.828Z,9.55
2022-08-16T18:18:48.461Z,10.05
2022-08-16T18:21:33.904Z,9.63
2022-08-16T18:24:00.847Z,10.57
2022-08-16T18:26:27.578Z,11.02
2022-08-16T18:28:54.321Z,11.45
2022-08-16T18:31:21.010Z,10.05
2022-08-16T18:33:47.608Z,10.20
2022-08-16T18:36:20.060Z,10.48
2022-08-16T18:38:49.291Z,10.73
2022-08-16T18:41:16.395Z,10.85
2022-08-16T18:44:23.717Z,9.90
2022-08-16T18:46:29.764Z,10.90
2022-08-16T18:48:56.998Z,11.68
2022-08-16T18:51:25.479Z,12.63
2022-08-16T18:53:53.173Z,13.00
2022-08-16T18:56:19.905Z,12.43
2022-08-16T18:58:46.545Z,12.90
2022-08-16T19:01:13.438Z,11.48
2022-08-16T19:03:40.089Z,11.15
2022-08-16T19:06:13.893Z,11.10
2022-08-16T19:08:43.519Z,11.70
2022-08-16T19:11:13.918Z,12.10
2022-08-16T19:13:44.019Z,13.48
2022-08-16T19:16:12.073Z,15.25
2022-08-16T19:18:39.279Z,16.00
2022-08-16T19:21:07.678Z,15.73
2022-08-16T19:23:37.276Z,16.80
2022-08-16T19:26:20.287Z,18.08
2022-08-16T19:28:58.363Z,22.00
2022-08-16T19:31:30.135Z,22.38
2022-08-16T19:33:57.642Z,27.83
2022-08-16T19:36:35.746Z,27.63
2022-08-16T19:39:13.614Z,33.00
2022-08-16T19:41:46.416Z,36.73
2022-08-16T19:44:20.049Z,41.97
2022-08-16T19:46:48.666Z,50.65
2022-08-16T19:49:16.559Z,62.00
2022-08-16T19:51:47.544Z,73.65
2022-08-16T19:54:14.871Z,84.13
2022-08-16T19:56:41.600Z,98.97
2022-08-16T19:59:39.181Z,111.20
2022-08-16T20:01:55.081Z,122.60
2022-08-16T20:04:23.464Z,134.30
2022-08-16T20:06:52.538Z,148.07
2022-08-16T20:09:20.447Z,161.18
2022-08-16T20:11:48.242Z,167.15
2022-08-16T20:14:24.360Z,167.00
2022-08-16T20:16:56.862Z,169.05
2022-08-16T20:19:24.880Z,168.95
2022-08-16T20:21:51.500Z,169.13
2022-08-16T20:24:35.745Z,173.55
2022-08-16T20:27:05.030Z,186.05
2022-08-16T20:29:31.684Z,190.93
2022-08-16T20:31:58.632Z,200.07
2022-08-16T20:34:25.295Z,210.60
2022-08-16T20:36:51.937Z,215.70
2022-08-16T20:39:18.675Z,213.50
2022-08-16T20:41:45.336Z,215.73
2022-08-16T20:44:12.607Z,208.52
2022-08-16T20:46:39.908Z,208.75
2022-08-16T20:49:09.287Z,206.77
2022-08-16T20:51:49.824Z,211.90
2022-08-16T20:54:18.156Z,205.93
2022-08-16T20:56:44.695Z,201.47
2022-08-16T20:59:11.284Z,209.13
2022-08-16T21:01:45.993Z,222.02
2022-08-16T21:04:16.230Z,221.45
2022-08-16T21:06:42.876Z,227.48
2022-08-16T21:09:23.557Z,235.93
2022-08-16T21:11:53.413Z,239.73
2022-08-16T21:14:20.177Z,251.82
2022-08-16T21:16:46.843Z,253.77
2022-08-16T21:19:13.795Z,253.85
2022-08-16T21:21:40.506Z,257.48
2022-08-16T21:24:07.261Z,251.38
2022-08-16T21:26:38.981Z,251.87
2022-08-16T21:29:07.852Z,257.17
2022-08-16T21:31:40.277Z,252.35
2022-08-16T21:34:08.166Z,254.70
2022-08-16T21:36:36.333Z,259.50
2022-08-16T21:39:06.132Z,258.90
2022-08-16T21:41:33.729Z,266.00
2022-08-16T21:44:00.352Z,263.35
2022-08-16T21:46:26.970Z,257.88
2022-08-16T21:48:53.557Z,262.50
2022-08-16T21:51:20.674Z,264.60
2022-08-16T21:53:47.418Z,258.50
2022-08-16T21:56:17.295Z,263.85
2022-08-16T21:58:45.531Z,265.25
2022-08-16T22:01:12.276Z,258.63
2022-08-16T22:03:39.056Z,260.35
2022-08-16T22:06:12.785Z,262.63
2022-08-16T22:08:48.870Z,266.15
2022-08-16T22:11:18.516Z,271.13
2022-08-16T22:13:57.298Z,271.20
2022-08-16T22:16:29.085Z,274.42
2022-08-16T22:18:55.789Z,277.35
2022-08-16T22:21:22.694Z,270.48
2022-08-16T22:23:55.175Z,274.73
2022-08-16T22:26:39.613Z,280.45
2022-08-16T22:29:11.458Z,271.67
2022-08-16T22:31:39.414Z,276.83
2022-08-16T22:34:06.585Z,273.23
2022-08-16T22:36:33.799Z,265.98
2022-08-16T22:39:03.645Z,271.00
2022-08-16T22:41:31.974Z,269.15
2022-08-16T22:44:00.051Z,266.10
2022-08-16T22:46:26.817Z,270.83
2022-08-16T22:48:53.412Z,272.75
2022-08-16T22:51:21.831Z,271.73
2022-08-16T22:53:48.718Z,274.30
2022-08-16T22:56:18.325Z,281.30
2022-08-16T22:58:46.085Z,281.23
2022-08-16T23:01:14.362Z,282.55
2022-08-16T23:03:41.679Z,274.30
2022-08-16T23:06:11.929Z,273.17
2022-08-16T23:08:41.179Z,278.13
2022-08-16T23:11:22.680Z,278.48
2022-08-16T23:13:55.063Z,288.77
2022-08-16T23:16:33.384Z,288.17
2022-08-16T23:19:06.908Z,292.65
2022-08-16T23:21:34.665Z,289.92
2022-08-16T23:24:02.125Z,296.52
2022-08-16T23:26:36.479Z,295.02
2022-08-16T23:29:24.084Z,301.13
2022-08-16T23:31:55.910Z,293.67
2022-08-16T23:34:22.701Z,298.05
2022-08-16T23:36:49.324Z,299.27
2022-08-16T23:39:15.939Z,292.40
2022-08-16T23:41:43.813Z,300.92
2022-08-16T23:44:56.923Z,303.98
2022-08-16T23:46:57.208Z,301.23
2022-08-16T23:49:55.924Z,301.70
2022-08-16T23:52:10.701Z,304.00
2022-08-16T23:54:37.277Z,304.98
2022-08-16T23:57:04.101Z,308.27
2022-08-16T23:59:35.949Z,304.50
